sensor_id;sensor_type;location;lat;lon;timestamp;pressure;altitude;pressure_sealevel;temperature;humidity
13974;BME280;7060;43.770;4.008;2023-02-18T00:01:42;102539.56;;;4.27;68.67
13974;BME280;7060;43.770;4.008;2023-02-18T00:04:10;102543.63;;;4.14;68.90
13974;BME280;7060;43.770;4.008;2023-02-18T00:06:40;102539.59;;;4.03;69.48
13974;BME280;7060;43.770;4.008;2023-02-18T00:09:09;102539.19;;;3.92;69.00
13974;BME280;7060;43.770;4.008;2023-02-18T00:11:38;102552.56;;;3.88;69.44
13974;BME280;7060;43.770;4.008;2023-02-18T00:14:10;102549.34;;;3.80;68.94
13974;BME280;7060;43.770;4.008;2023-02-18T00:16:39;102549.47;;;3.76;69.38
13974;BME280;7060;43.770;4.008;2023-02-18T00:19:12;102545.38;;;3.68;69.06
13974;BME280;7060;43.770;4.008;2023-02-18T00:21:42;102543.91;;;3.61;69.40
13974;BME280;7060;43.770;4.008;2023-02-18T00:24:12;102543.19;;;3.56;69.98
13974;BME280;7060;43.770;4.008;2023-02-18T00:26:43;102538.84;;;3.55;69.93
13974;BME280;7060;43.770;4.008;2023-02-18T00:29:12;102535.97;;;3.61;70.05
13974;BME280;7060;43.770;4.008;2023-02-18T00:31:40;102530.41;;;3.67;70.13
13974;BME280;7060;43.770;4.008;2023-02-18T00:34:10;102536.78;;;3.63;69.38
13974;BME280;7060;43.770;4.008;2023-02-18T00:36:39;102504.28;;;3.36;69.68
13974;BME280;7060;43.770;4.008;2023-02-18T00:39:09;102523.47;;;3.41;70.24
13974;BME280;7060;43.770;4.008;2023-02-18T00:41:40;102526.28;;;3.36;70.34
13974;BME280;7060;43.770;4.008;2023-02-18T00:44:09;102533.47;;;3.33;71.03
13974;BME280;7060;43.770;4.008;2023-02-18T00:46:38;102536.16;;;3.31;71.26
13974;BME280;7060;43.770;4.008;2023-02-18T00:49:07;102536.78;;;3.38;70.34
13974;BME280;7060;43.770;4.008;2023-02-18T00:51:35;102538.50;;;3.39;71.25
13974;BME280;7060;43.770;4.008;2023-02-18T00:54:04;102535.72;;;3.43;70.98
13974;BME280;7060;43.770;4.008;2023-02-18T00:56:34;102553.94;;;3.51;70.63
13974;BME280;7060;43.770;4.008;2023-02-18T00:59:03;102544.13;;;3.55;69.99
13974;BME280;7060;43.770;4.008;2023-02-18T01:01:31;102538.88;;;3.53;70.30
13974;BME280;7060;43.770;4.008;2023-02-18T01:04:01;102545.75;;;3.59;70.37
13974;BME280;7060;43.770;4.008;2023-02-18T01:06:30;102526.91;;;3.43;69.83
13974;BME280;7060;43.770;4.008;2023-02-18T01:08:59;102545.97;;;3.53;70.16
13974;BME280;7060;43.770;4.008;2023-02-18T01:11:28;102552.50;;;3.42;69.86
13974;BME280;7060;43.770;4.008;2023-02-18T01:13:58;102554.47;;;3.37;69.84
13974;BME280;7060;43.770;4.008;2023-02-18T01:16:28;102558.94;;;3.35;70.83
13974;BME280;7060;43.770;4.008;2023-02-18T01:18:57;102555.44;;;3.35;70.59
13974;BME280;7060;43.770;4.008;2023-02-18T01:21:25;102552.25;;;3.25;70.99
13974;BME280;7060;43.770;4.008;2023-02-18T01:23:53;102548.84;;;3.22;70.31
13974;BME280;7060;43.770;4.008;2023-02-18T01:26:22;102545.53;;;3.15;71.03
13974;BME280;7060;43.770;4.008;2023-02-18T01:28:51;102547.56;;;3.08;70.48
13974;BME280;7060;43.770;4.008;2023-02-18T01:31:21;102539.94;;;2.99;70.78
13974;BME280;7060;43.770;4.008;2023-02-18T01:33:50;102538.38;;;2.94;71.83
13974;BME280;7060;43.770;4.008;2023-02-18T01:36:19;102538.47;;;2.91;71.30
13974;BME280;7060;43.770;4.008;2023-02-18T01:38:48;102545.44;;;2.93;72.22
13974;BME280;7060;43.770;4.008;2023-02-18T01:41:16;102541.81;;;2.96;71.12
13974;BME280;7060;43.770;4.008;2023-02-18T01:43:47;102540.25;;;2.90;71.19
13974;BME280;7060;43.770;4.008;2023-02-18T01:46:18;102540.25;;;2.90;71.94
13974;BME280;7060;43.770;4.008;2023-02-18T01:48:51;102544.63;;;2.91;71.42
13974;BME280;7060;43.770;4.008;2023-02-18T01:51:24;102537.63;;;2.90;71.10
13974;BME280;7060;43.770;4.008;2023-02-18T01:53:57;102539.19;;;2.96;72.01
13974;BME280;7060;43.770;4.008;2023-02-18T01:56:30;102538.16;;;3.00;71.77
13974;BME280;7060;43.770;4.008;2023-02-18T01:59:06;102510.53;;;2.84;71.74
13974;BME280;7060;43.770;4.008;2023-02-18T02:01:37;102530.25;;;3.00;72.33
13974;BME280;7060;43.770;4.008;2023-02-18T02:04:08;102533.44;;;3.10;72.41
13974;BME280;7060;43.770;4.008;2023-02-18T02:06:37;102531.47;;;3.15;72.60
13974;BME280;7060;43.770;4.008;2023-02-18T02:09:07;102521.59;;;3.20;71.62
13974;BME280;7060;43.770;4.008;2023-02-18T02:12:08;102496.81;;;2.99;71.17
13974;BME280;7060;43.770;4.008;2023-02-18T02:14:53;102509.97;;;3.00;71.69
13974;BME280;7060;43.770;4.008;2023-02-18T02:17:30;102508.28;;;2.98;71.64
13974;BME280;7060;43.770;4.008;2023-02-18T02:20:35;102499.44;;;2.99;71.61
13974;BME280;7060;43.770;4.008;2023-02-18T02:23:27;102500.16;;;3.04;72.37
13974;BME280;7060;43.770;4.008;2023-02-18T02:26:33;102506.16;;;3.09;70.99
13974;BME280;7060;43.770;4.008;2023-02-18T02:35:24;102499.88;;;2.87;71.52
13974;BME280;7060;43.770;4.008;2023-02-18T02:37:59;102491.06;;;2.86;72.15
13974;BME280;7060;43.770;4.008;2023-02-18T02:40:36;102489.41;;;2.84;71.71
13974;BME280;7060;43.770;4.008;2023-02-18T02:43:11;102494.63;;;2.85;72.24
13974;BME280;7060;43.770;4.008;2023-02-18T02:45:49;102452.22;;;2.65;71.98
13974;BME280;7060;43.770;4.008;2023-02-18T02:48:28;102450.34;;;2.68;72.08
13974;BME280;7060;43.770;4.008;2023-02-18T02:51:06;102488.19;;;2.94;71.54
13974;BME280;7060;43.770;4.008;2023-02-18T02:53:40;102490.88;;;2.92;71.60
13974;BME280;7060;43.770;4.008;2023-02-18T02:56:13;102493.47;;;2.94;72.33
13974;BME280;7060;43.770;4.008;2023-02-18T02:58:44;102488.94;;;2.97;71.35
13974;BME280;7060;43.770;4.008;2023-02-18T03:01:21;102496.09;;;2.94;71.58
13974;BME280;7060;43.770;4.008;2023-02-18T03:04:16;102495.41;;;2.89;71.44
13974;BME280;7060;43.770;4.008;2023-02-18T03:07:01;102485.63;;;2.91;72.33
13974;BME280;7060;43.770;4.008;2023-02-18T03:09:42;102495.09;;;2.98;72.35
13974;BME280;7060;43.770;4.008;2023-02-18T03:12:18;102483.50;;;3.02;71.91
13974;BME280;7060;43.770;4.008;2023-02-18T03:15:00;102487.97;;;3.00;71.90
13974;BME280;7060;43.770;4.008;2023-02-18T03:17:34;102495.09;;;2.98;71.74
13974;BME280;7060;43.770;4.008;2023-02-18T03:20:07;102489.91;;;2.95;72.00
13974;BME280;7060;43.770;4.008;2023-02-18T03:22:42;102487.31;;;2.93;71.62
13974;BME280;7060;43.770;4.008;2023-02-18T03:25:13;102483.88;;;2.91;71.43
13974;BME280;7060;43.770;4.008;2023-02-18T03:27:45;102484.63;;;2.95;71.25
13974;BME280;7060;43.770;4.008;2023-02-18T03:30:20;102475.88;;;2.93;72.12
13974;BME280;7060;43.770;4.008;2023-02-18T03:32:54;102486.34;;;2.96;70.78
13974;BME280;7060;43.770;4.008;2023-02-18T03:35:26;102483.16;;;2.86;71.90
13974;BME280;7060;43.770;4.008;2023-02-18T03:38:00;102480.69;;;2.82;70.99
13974;BME280;7060;43.770;4.008;2023-02-18T03:40:31;102480.09;;;2.73;71.57
13974;BME280;7060;43.770;4.008;2023-02-18T03:43:00;102481.13;;;2.69;71.07
13974;BME280;7060;43.770;4.008;2023-02-18T03:45:29;102485.47;;;2.70;72.02
13974;BME280;7060;43.770;4.008;2023-02-18T03:47:57;102467.25;;;2.63;71.75
13974;BME280;7060;43.770;4.008;2023-02-18T03:50:26;102484.41;;;2.76;71.04
13974;BME280;7060;43.770;4.008;2023-02-18T03:52:54;102475.28;;;2.60;71.01
13974;BME280;7060;43.770;4.008;2023-02-18T03:55:24;102480.66;;;2.57;71.40
13974;BME280;7060;43.770;4.008;2023-02-18T03:57:52;102483.25;;;2.58;71.94
13974;BME280;7060;43.770;4.008;2023-02-18T04:00:21;102488.38;;;2.63;72.09
13974;BME280;7060;43.770;4.008;2023-02-18T04:02:49;102486.53;;;2.65;72.07
13974;BME280;7060;43.770;4.008;2023-02-18T04:05:18;102481.41;;;2.60;71.89
13974;BME280;7060;43.770;4.008;2023-02-18T04:07:46;102485.06;;;2.56;71.85
13974;BME280;7060;43.770;4.008;2023-02-18T04:10:15;102477.06;;;2.59;72.14
13974;BME280;7060;43.770;4.008;2023-02-18T04:12:45;102484.72;;;2.67;72.51
13974;BME280;7060;43.770;4.008;2023-02-18T04:15:13;102481.16;;;2.68;72.04
13974;BME280;7060;43.770;4.008;2023-02-18T04:17:42;102480.41;;;2.64;71.15
13974;BME280;7060;43.770;4.008;2023-02-18T04:20:11;102484.38;;;2.51;71.80
13974;BME280;7060;43.770;4.008;2023-02-18T04:22:39;102480.41;;;2.38;72.41
13974;BME280;7060;43.770;4.008;2023-02-18T04:25:08;102480.72;;;2.29;71.79
13974;BME280;7060;43.770;4.008;2023-02-18T04:27:36;102488.84;;;2.23;72.58
13974;BME280;7060;43.770;4.008;2023-02-18T04:30:07;102490.41;;;2.28;72.77
13974;BME280;7060;43.770;4.008;2023-02-18T04:32:36;102487.53;;;2.36;72.55
13974;BME280;7060;43.770;4.008;2023-02-18T04:35:05;102488.44;;;2.35;72.54
13974;BME280;7060;43.770;4.008;2023-02-18T04:37:33;102493.63;;;2.38;72.04
13974;BME280;7060;43.770;4.008;2023-02-18T04:40:02;102492.06;;;2.31;72.26
13974;BME280;7060;43.770;4.008;2023-02-18T04:42:31;102495.69;;;2.28;72.11
13974;BME280;7060;43.770;4.008;2023-02-18T04:44:59;102492.50;;;2.19;72.16
13974;BME280;7060;43.770;4.008;2023-02-18T04:47:29;102494.22;;;2.20;72.73
13974;BME280;7060;43.770;4.008;2023-02-18T04:49:58;102489.66;;;2.25;72.51
13974;BME280;7060;43.770;4.008;2023-02-18T04:52:26;102499.19;;;2.29;72.09
13974;BME280;7060;43.770;4.008;2023-02-18T04:54:55;102499.31;;;2.26;72.16
13974;BME280;7060;43.770;4.008;2023-02-18T04:57:23;102502.97;;;2.22;72.01
13974;BME280;7060;43.770;4.008;2023-02-18T04:59:51;102509.06;;;2.24;72.06
13974;BME280;7060;43.770;4.008;2023-02-18T05:02:20;102511.69;;;2.24;71.59
13974;BME280;7060;43.770;4.008;2023-02-18T05:04:50;102511.69;;;2.24;71.81
13974;BME280;7060;43.770;4.008;2023-02-18T05:07:18;102511.78;;;2.21;72.38
13974;BME280;7060;43.770;4.008;2023-02-18T05:09:47;102518.06;;;2.17;72.00
13974;BME280;7060;43.770;4.008;2023-02-18T05:12:15;102506.97;;;2.05;71.94
13974;BME280;7060;43.770;4.008;2023-02-18T05:14:44;102507.19;;;1.99;72.51
13974;BME280;7060;43.770;4.008;2023-02-18T05:17:13;102507.38;;;1.93;72.32
13974;BME280;7060;43.770;4.008;2023-02-18T05:19:41;102505.66;;;1.92;72.93
13974;BME280;7060;43.770;4.008;2023-02-18T05:22:11;102509.81;;;1.99;72.40
13974;BME280;7060;43.770;4.008;2023-02-18T05:24:39;102511.38;;;2.05;71.98
13974;BME280;7060;43.770;4.008;2023-02-18T05:27:08;102504.34;;;2.05;72.00
13974;BME280;7060;43.770;4.008;2023-02-18T05:29:36;102503.50;;;2.03;72.01
13974;BME280;7060;43.770;4.008;2023-02-18T05:32:05;102506.19;;;2.02;72.00
13974;BME280;7060;43.770;4.008;2023-02-18T05:34:33;102511.75;;;1.94;72.22
13974;BME280;7060;43.770;4.008;2023-02-18T05:37:02;102518.78;;;1.94;72.24
13974;BME280;7060;43.770;4.008;2023-02-18T05:39:32;102515.19;;;1.96;72.18
13974;BME280;7060;43.770;4.008;2023-02-18T05:42:00;102519.78;;;1.90;71.67
13974;BME280;7060;43.770;4.008;2023-02-18T05:44:29;102515.38;;;1.90;72.21
13974;BME280;7060;43.770;4.008;2023-02-18T05:46:58;102512.50;;;1.98;72.35
13974;BME280;7060;43.770;4.008;2023-02-18T05:49:27;102511.56;;;2.00;72.62
13974;BME280;7060;43.770;4.008;2023-02-18T05:51:56;102513.97;;;2.06;72.12
13974;BME280;7060;43.770;4.008;2023-02-18T05:54:25;102513.97;;;2.06;72.39
13974;BME280;7060;43.770;4.008;2023-02-18T05:56:55;102517.34;;;2.12;71.76
13974;BME280;7060;43.770;4.008;2023-02-18T05:59:23;102515.72;;;2.08;72.00
13974;BME280;7060;43.770;4.008;2023-02-18T06:01:52;102509.56;;;2.07;71.66
13974;BME280;7060;43.770;4.008;2023-02-18T06:04:21;102500.28;;;1.95;71.97
13974;BME280;7060;43.770;4.008;2023-02-18T06:06:49;102514.03;;;2.05;71.66
13974;BME280;7060;43.770;4.008;2023-02-18T06:09:18;102509.63;;;2.05;72.23
13974;BME280;7060;43.770;4.008;2023-02-18T06:11:46;102514.06;;;2.03;71.59
13974;BME280;7060;43.770;4.008;2023-02-18T06:14:16;102491.50;;;1.95;71.66
13974;BME280;7060;43.770;4.008;2023-02-18T06:16:45;102505.47;;;1.98;71.11
13974;BME280;7060;43.770;4.008;2023-02-18T06:19:13;102515.41;;;1.89;71.55
13974;BME280;7060;43.770;4.008;2023-02-18T06:21:42;102518.16;;;1.86;71.25
13974;BME280;7060;43.770;4.008;2023-02-18T06:24:10;102514.81;;;1.79;71.04
13974;BME280;7060;43.770;4.008;2023-02-18T06:26:39;102504.66;;;1.67;71.57
13974;BME280;7060;43.770;4.008;2023-02-18T06:29:07;102508.22;;;1.66;71.60
13974;BME280;7060;43.770;4.008;2023-02-18T06:31:38;102506.47;;;1.65;71.59
13974;BME280;7060;43.770;4.008;2023-02-18T06:34:07;102511.75;;;1.65;72.15
13974;BME280;7060;43.770;4.008;2023-02-18T06:36:35;102512.56;;;1.67;71.85
13974;BME280;7060;43.770;4.008;2023-02-18T06:39:04;102510.84;;;1.66;72.08
13974;BME280;7060;43.770;4.008;2023-02-18T06:41:33;102510.81;;;1.67;71.74
13974;BME280;7060;43.770;4.008;2023-02-18T06:44:01;102517.16;;;1.60;72.05
13974;BME280;7060;43.770;4.008;2023-02-18T06:46:30;102521.66;;;1.57;71.92
13974;BME280;7060;43.770;4.008;2023-02-18T06:49:00;102519.84;;;1.59;71.97
13974;BME280;7060;43.770;4.008;2023-02-18T06:51:29;102524.13;;;1.63;71.69
13974;BME280;7060;43.770;4.008;2023-02-18T06:53:58;102526.09;;;1.55;71.90
13974;BME280;7060;43.770;4.008;2023-02-18T06:56:26;102525.28;;;1.53;71.88
13974;BME280;7060;43.770;4.008;2023-02-18T06:58:56;102522.72;;;1.50;72.05
13974;BME280;7060;43.770;4.008;2023-02-18T07:01:27;102527.00;;;1.54;72.40
13974;BME280;7060;43.770;4.008;2023-02-18T07:03:55;102529.47;;;1.60;72.30
13974;BME280;7060;43.770;4.008;2023-02-18T07:06:25;102536.22;;;1.70;71.83
13974;BME280;7060;43.770;4.008;2023-02-18T07:08:54;102534.28;;;1.75;71.83
13974;BME280;7060;43.770;4.008;2023-02-18T07:11:22;102533.31;;;1.78;71.91
13974;BME280;7060;43.770;4.008;2023-02-18T07:13:51;102539.28;;;1.84;71.72
13974;BME280;7060;43.770;4.008;2023-02-18T07:16:20;102539.13;;;1.90;71.92
13974;BME280;7060;43.770;4.008;2023-02-18T07:18:49;102537.28;;;1.92;72.10
13974;BME280;7060;43.770;4.008;2023-02-18T07:21:17;102529.44;;;1.91;71.44
13974;BME280;7060;43.770;4.008;2023-02-18T07:23:47;102538.06;;;1.96;72.24
13974;BME280;7060;43.770;4.008;2023-02-18T07:26:16;102545.16;;;1.94;72.54
13974;BME280;7060;43.770;4.008;2023-02-18T07:28:46;102544.13;;;1.99;72.52
13974;BME280;7060;43.770;4.008;2023-02-18T07:31:15;102543.81;;;2.09;72.85
13974;BME280;7060;43.770;4.008;2023-02-18T07:33:46;102534.75;;;2.17;72.65
13974;BME280;7060;43.770;4.008;2023-02-18T07:36:15;102544.88;;;2.31;73.24
13974;BME280;7060;43.770;4.008;2023-02-18T07:38:44;102547.13;;;2.43;73.06
13974;BME280;7060;43.770;4.008;2023-02-18T07:41:17;102533.47;;;2.57;73.39
13974;BME280;7060;43.770;4.008;2023-02-18T07:43:47;102543.28;;;2.80;72.88
13974;BME280;7060;43.770;4.008;2023-02-18T07:46:16;102544.06;;;3.08;73.91
13974;BME280;7060;43.770;4.008;2023-02-18T07:48:45;102549.94;;;3.39;73.46
13974;BME280;7060;43.770;4.008;2023-02-18T07:51:14;102549.94;;;3.88;74.71
13974;BME280;7060;43.770;4.008;2023-02-18T07:53:43;102548.50;;;4.46;75.67
13974;BME280;7060;43.770;4.008;2023-02-18T07:56:12;102549.88;;;4.98;75.66
13974;BME280;7060;43.770;4.008;2023-02-18T07:58:43;102547.59;;;5.50;75.34
13974;BME280;7060;43.770;4.008;2023-02-18T08:01:13;102548.75;;;6.01;73.87
13974;BME280;7060;43.770;4.008;2023-02-18T08:03:43;102546.16;;;6.54;73.21
13974;BME280;7060;43.770;4.008;2023-02-18T08:06:20;102542.47;;;6.93;71.09
13974;BME280;7060;43.770;4.008;2023-02-18T08:08:49;102546.50;;;7.34;70.85
13974;BME280;7060;43.770;4.008;2023-02-18T08:11:20;102547.13;;;7.72;69.53
13974;BME280;7060;43.770;4.008;2023-02-18T08:13:50;102540.63;;;8.09;68.29
13974;BME280;7060;43.770;4.008;2023-02-18T08:16:20;102539.91;;;8.37;67.51
13974;BME280;7060;43.770;4.008;2023-02-18T08:18:49;102548.19;;;8.78;67.04
13974;BME280;7060;43.770;4.008;2023-02-18T08:21:20;102543.41;;;9.13;66.80
13974;BME280;7060;43.770;4.008;2023-02-18T08:23:49;102548.81;;;9.42;66.05
13974;BME280;7060;43.770;4.008;2023-02-18T08:26:18;102538.22;;;9.69;66.26
13974;BME280;7060;43.770;4.008;2023-02-18T08:28:47;102542.97;;;10.06;65.38
13974;BME280;7060;43.770;4.008;2023-02-18T08:31:18;102539.84;;;10.27;64.70
13974;BME280;7060;43.770;4.008;2023-02-18T08:33:48;102546.34;;;10.37;64.08
13974;BME280;7060;43.770;4.008;2023-02-18T08:36:17;102544.03;;;10.45;63.68
13974;BME280;7060;43.770;4.008;2023-02-18T08:38:46;102543.69;;;10.49;63.22
13974;BME280;7060;43.770;4.008;2023-02-18T08:41:15;102545.28;;;10.39;63.40
13974;BME280;7060;43.770;4.008;2023-02-18T08:43:46;102540.88;;;10.38;63.73
13974;BME280;7060;43.770;4.008;2023-02-18T08:46:17;102538.88;;;10.42;63.67
13974;BME280;7060;43.770;4.008;2023-02-18T08:49:01;102539.34;;;10.48;63.80
13974;BME280;7060;43.770;4.008;2023-02-18T08:51:30;102543.94;;;10.46;63.75
13974;BME280;7060;43.770;4.008;2023-02-18T08:53:59;102539.09;;;10.51;63.91
13974;BME280;7060;43.770;4.008;2023-02-18T08:56:28;102547.03;;;10.53;64.22
13974;BME280;7060;43.770;4.008;2023-02-18T08:58:57;102549.69;;;10.53;63.74
13974;BME280;7060;43.770;4.008;2023-02-18T09:01:27;102545.84;;;10.44;65.04
13974;BME280;7060;43.770;4.008;2023-02-18T09:03:56;102548.31;;;10.47;65.31
13974;BME280;7060;43.770;4.008;2023-02-18T09:06:24;102547.88;;;10.53;65.11
13974;BME280;7060;43.770;4.008;2023-02-18T09:08:54;102542.78;;;10.63;65.18
13974;BME280;7060;43.770;4.008;2023-02-18T09:11:24;102542.19;;;10.72;65.26
13974;BME280;7060;43.770;4.008;2023-02-18T09:13:52;102537.28;;;10.79;65.17
13974;BME280;7060;43.770;4.008;2023-02-18T09:16:20;102532.38;;;10.85;65.65
13974;BME280;7060;43.770;4.008;2023-02-18T09:18:53;102536.16;;;10.96;65.78
13974;BME280;7060;43.770;4.008;2023-02-18T09:21:22;102528.44;;;11.04;65.56
13974;BME280;7060;43.770;4.008;2023-02-18T09:23:50;102535.09;;;11.11;65.52
13974;BME280;7060;43.770;4.008;2023-02-18T09:26:20;102528.59;;;11.15;65.56
13974;BME280;7060;43.770;4.008;2023-02-18T09:28:50;102528.16;;;11.21;65.29
13974;BME280;7060;43.770;4.008;2023-02-18T09:31:21;102450.63;;;10.81;65.54
13974;BME280;7060;43.770;4.008;2023-02-18T09:33:53;102529.88;;;11.35;65.59
13974;BME280;7060;43.770;4.008;2023-02-18T09:36:22;102483.41;;;11.23;65.79
13974;BME280;7060;43.770;4.008;2023-02-18T09:38:52;102529.56;;;11.52;65.46
13974;BME280;7060;43.770;4.008;2023-02-18T09:41:29;102526.44;;;11.58;64.78
13974;BME280;7060;43.770;4.008;2023-02-18T09:44:01;102521.50;;;11.65;64.70
13974;BME280;7060;43.770;4.008;2023-02-18T09:46:33;102446.22;;;11.31;64.82
13974;BME280;7060;43.770;4.008;2023-02-18T09:49:07;102515.81;;;11.82;64.91
13974;BME280;7060;43.770;4.008;2023-02-18T09:51:36;102518.53;;;11.93;64.77
13974;BME280;7060;43.770;4.008;2023-02-18T09:54:08;102510.81;;;12.01;64.15
13974;BME280;7060;43.770;4.008;2023-02-18T09:56:38;102509.28;;;12.10;63.80
13974;BME280;7060;43.770;4.008;2023-02-18T09:59:14;102496.81;;;12.21;64.10
13974;BME280;7060;43.770;4.008;2023-02-18T10:01:45;102492.38;;;12.33;63.83
13974;BME280;7060;43.770;4.008;2023-02-18T10:04:18;102495.09;;;12.44;63.10
13974;BME280;7060;43.770;4.008;2023-02-18T10:06:50;102490.25;;;12.49;62.53
13974;BME280;7060;43.770;4.008;2023-02-18T10:09:21;102487.84;;;12.58;61.99
13974;BME280;7060;43.770;4.008;2023-02-18T10:11:54;102494.34;;;12.66;62.12
13974;BME280;7060;43.770;4.008;2023-02-18T10:14:24;102459.19;;;12.58;62.23
13974;BME280;7060;43.770;4.008;2023-02-18T10:16:53;102484.88;;;12.84;61.27
13974;BME280;7060;43.770;4.008;2023-02-18T10:19:28;102488.81;;;12.92;60.78
13974;BME280;7060;43.770;4.008;2023-02-18T10:21:57;102480.75;;;13.03;61.00
13974;BME280;7060;43.770;4.008;2023-02-18T10:24:30;102476.63;;;13.10;60.60
13974;BME280;7060;43.770;4.008;2023-02-18T10:27:01;102478.97;;;13.14;60.83
13974;BME280;7060;43.770;4.008;2023-02-18T10:29:31;102483.88;;;13.20;59.97
13974;BME280;7060;43.770;4.008;2023-02-18T10:32:05;102470.78;;;13.27;59.26
13974;BME280;7060;43.770;4.008;2023-02-18T10:34:40;102471.44;;;13.42;59.64
13974;BME280;7060;43.770;4.008;2023-02-18T10:37:27;102472.06;;;13.45;59.70
13974;BME280;7060;43.770;4.008;2023-02-18T10:40:05;102461.78;;;13.50;60.25
13974;BME280;7060;43.770;4.008;2023-02-18T10:42:45;102466.91;;;13.65;59.20
13974;BME280;7060;43.770;4.008;2023-02-18T10:45:23;102451.63;;;13.76;59.38
13974;BME280;7060;43.770;4.008;2023-02-18T10:48:09;102458.81;;;13.87;59.65
13974;BME280;7060;43.770;4.008;2023-02-18T10:50:44;102446.56;;;13.94;59.31
13974;BME280;7060;43.770;4.008;2023-02-18T10:53:15;102399.06;;;13.83;58.70
13974;BME280;7060;43.770;4.008;2023-02-18T10:55:46;102438.91;;;14.21;58.81
13974;BME280;7060;43.770;4.008;2023-02-18T10:58:33;102433.22;;;14.36;58.52
13974;BME280;7060;43.770;4.008;2023-02-18T11:01:04;102439.16;;;14.50;57.94
13974;BME280;7060;43.770;4.008;2023-02-18T11:03:40;102435.03;;;14.67;56.84
13974;BME280;7060;43.770;4.008;2023-02-18T11:06:21;102433.47;;;14.85;56.37
13974;BME280;7060;43.770;4.008;2023-02-18T11:08:52;102425.75;;;15.02;55.24
13974;BME280;7060;43.770;4.008;2023-02-18T11:11:23;102426.97;;;15.18;54.54
13974;BME280;7060;43.770;4.008;2023-02-18T11:13:54;102423.22;;;15.31;54.01
13974;BME280;7060;43.770;4.008;2023-02-18T11:16:34;102421.25;;;15.42;53.94
13974;BME280;7060;43.770;4.008;2023-02-18T11:19:03;102415.50;;;15.56;53.63
13974;BME280;7060;43.770;4.008;2023-02-18T11:21:36;102406.75;;;15.74;52.92
13974;BME280;7060;43.770;4.008;2023-02-18T11:24:08;102411.06;;;15.86;53.06
13974;BME280;7060;43.770;4.008;2023-02-18T11:26:38;102403.25;;;16.02;52.72
13974;BME280;7060;43.770;4.008;2023-02-18T11:29:14;102329.56;;;15.73;51.67
13974;BME280;7060;43.770;4.008;2023-02-18T11:31:48;102395.72;;;16.35;51.53
13974;BME280;7060;43.770;4.008;2023-02-18T11:34:20;102388.34;;;16.46;51.54
13974;BME280;7060;43.770;4.008;2023-02-18T11:36:51;102393.56;;;16.57;51.54
13974;BME280;7060;43.770;4.008;2023-02-18T11:39:22;102383.63;;;16.68;50.68
13974;BME280;7060;43.770;4.008;2023-02-18T11:41:56;102379.59;;;16.81;50.77
13974;BME280;7060;43.770;4.008;2023-02-18T11:44:28;102382.13;;;16.92;50.27
13974;BME280;7060;43.770;4.008;2023-02-18T11:47:00;102372.44;;;17.00;50.26
13974;BME280;7060;43.770;4.008;2023-02-18T11:49:30;102347.56;;;16.96;49.60
13974;BME280;7060;43.770;4.008;2023-02-18T11:52:15;102331.22;;;16.98;49.77
13974;BME280;7060;43.770;4.008;2023-02-18T11:54:59;102354.00;;;17.22;49.19
13974;BME280;7060;43.770;4.008;2023-02-18T11:57:28;102349.56;;;17.31;49.25
13974;BME280;7060;43.770;4.008;2023-02-18T11:59:57;102349.63;;;17.39;49.03
13974;BME280;7060;43.770;4.008;2023-02-18T12:02:31;102340.75;;;17.47;48.70
13974;BME280;7060;43.770;4.008;2023-02-18T12:05:03;102346.72;;;17.50;48.86
13974;BME280;7060;43.770;4.008;2023-02-18T12:07:42;102334.31;;;17.57;48.56
13974;BME280;7060;43.770;4.008;2023-02-18T12:10:14;102329.00;;;17.66;47.55
13974;BME280;7060;43.770;4.008;2023-02-18T12:12:45;102336.81;;;17.69;47.95
13974;BME280;7060;43.770;4.008;2023-02-18T12:15:17;102175.03;;;16.83;48.05
13974;BME280;7060;43.770;4.008;2023-02-18T12:18:01;102323.38;;;17.77;47.98
13974;BME280;7060;43.770;4.008;2023-02-18T12:20:45;102330.16;;;17.81;47.91
13974;BME280;7060;43.770;4.008;2023-02-18T12:23:25;102321.41;;;17.69;48.22
13974;BME280;7060;43.770;4.008;2023-02-18T12:26:07;102317.09;;;17.76;48.34
13974;BME280;7060;43.770;4.008;2023-02-18T12:28:51;102320.81;;;17.75;48.71
13974;BME280;7060;43.770;4.008;2023-02-18T12:34:46;102308.53;;;17.81;48.50
13974;BME280;7060;43.770;4.008;2023-02-18T12:37:43;102301.13;;;17.83;48.02
13974;BME280;7060;43.770;4.008;2023-02-18T12:40:41;102291.13;;;17.83;48.62
13974;BME280;7060;43.770;4.008;2023-02-18T12:43:21;102291.34;;;17.90;48.67
13974;BME280;7060;43.770;4.008;2023-02-18T12:46:14;102288.03;;;17.96;48.38
13974;BME280;7060;43.770;4.008;2023-02-18T12:48:57;102260.69;;;17.81;48.35
13974;BME280;7060;43.770;4.008;2023-02-18T12:51:40;102277.03;;;17.98;48.68
13974;BME280;7060;43.770;4.008;2023-02-18T12:54:24;102279.59;;;17.99;48.30
13974;BME280;7060;43.770;4.008;2023-02-18T12:57:12;102272.16;;;18.01;48.35
13974;BME280;7060;43.770;4.008;2023-02-18T13:00:02;102279.28;;;18.02;48.10
13974;BME280;7060;43.770;4.008;2023-02-18T13:02:51;102272.16;;;18.01;48.03
13974;BME280;7060;43.770;4.008;2023-02-18T13:05:29;102269.31;;;18.03;47.98
13974;BME280;7060;43.770;4.008;2023-02-18T13:08:09;102257.63;;;18.02;47.29
13974;BME280;7060;43.770;4.008;2023-02-18T13:10:58;102253.06;;;18.03;47.68
13974;BME280;7060;43.770;4.008;2023-02-18T13:13:32;102254.47;;;18.07;47.98
13974;BME280;7060;43.770;4.008;2023-02-18T13:16:05;102245.88;;;18.11;47.94
13974;BME280;7060;43.770;4.008;2023-02-18T13:18:40;102109.31;;;17.36;47.41
13974;BME280;7060;43.770;4.008;2023-02-18T13:21:13;102242.00;;;18.14;47.20
13974;BME280;7060;43.770;4.008;2023-02-18T13:23:47;102240.44;;;18.11;47.22
13974;BME280;7060;43.770;4.008;2023-02-18T13:26:20;102238.38;;;18.05;47.19
13974;BME280;7060;43.770;4.008;2023-02-18T13:28:57;102226.63;;;17.97;47.42
13974;BME280;7060;43.770;4.008;2023-02-18T13:31:38;102225.41;;;17.91;47.43
13974;BME280;7060;43.770;4.008;2023-02-18T13:34:16;102213.38;;;17.85;47.64
13974;BME280;7060;43.770;4.008;2023-02-18T13:36:55;102207.44;;;17.82;47.61
13974;BME280;7060;43.770;4.008;2023-02-18T13:39:29;102205.66;;;17.73;46.92
13974;BME280;7060;43.770;4.008;2023-02-18T13:42:18;102203.72;;;17.65;47.00
13974;BME280;7060;43.770;4.008;2023-02-18T13:47:59;102202.94;;;17.37;47.08